createdAt,value
2022-09-09T00:00:56.871Z,13.10
2022-09-09T00:03:47.723Z,13.10
2022-09-09T00:06:37.114Z,13.00
2022-09-09T00:09:27.810Z,13.00
2022-09-09T00:12:18.108Z,12.90
2022-09-09T00:15:10.076Z,13.00
2022-09-09T00:18:00.492Z,13.00
2022-09-09T00:20:52.018Z,13.00
2022-09-09T00:23:41.156Z,13.00
2022-09-09T00:26:33.301Z,13.00
2022-09-09T00:29:25.054Z,13.00
2022-09-09T00:32:15.865Z,13.00
2022-09-09T00:35:06.563Z,13.00
2022-09-09T00:37:55.973Z,13.00
2022-09-09T00:40:48.382Z,13.00
2022-09-09T00:43:38.655Z,12.90
2022-09-09T00:46:43.860Z,11.00
2022-09-09T00:49:38.871Z,12.90
2022-09-09T00:52:30.422Z,12.90
2022-09-09T00:55:21.969Z,13.30
2022-09-09T00:58:10.607Z,12.90
2022-09-09T01:01:00.658Z,12.70
2022-09-09T01:03:51.694Z,13.00
2022-09-09T01:06:40.522Z,14.90
2022-09-09T01:09:30.026Z,13.00
2022-09-09T01:12:18.041Z,13.10
2022-09-09T01:15:13.994Z,13.10
2022-09-09T01:18:11.201Z,13.10
2022-09-09T01:21:07.330Z,13.10
2022-09-09T01:24:07.217Z,13.10
2022-09-09T01:27:12.750Z,13.30
2022-09-09T01:30:01.212Z,13.40
2022-09-09T01:32:50.986Z,13.40
2022-09-09T01:35:42.607Z,13.20
2022-09-09T01:38:31.318Z,15.00
2022-09-09T01:41:19.509Z,13.10
2022-09-09T01:44:13.387Z,13.20
2022-09-09T01:47:04.570Z,13.20
2022-09-09T01:49:52.323Z,13.30
2022-09-09T01:52:45.038Z,13.20
2022-09-09T01:55:35.937Z,13.20
2022-09-09T01:58:30.465Z,13.20
2022-09-09T02:01:28.582Z,13.20
2022-09-09T02:04:27.467Z,13.20
2022-09-09T02:07:23.821Z,13.30
2022-09-09T02:10:14.195Z,13.20
2022-09-09T02:13:12.328Z,13.20
2022-09-09T02:16:03.184Z,13.30
2022-09-09T02:18:54.121Z,13.30
2022-09-09T02:21:48.681Z,13.30
2022-09-09T02:24:38.668Z,13.30
2022-09-09T02:27:47.502Z,13.30
2022-09-09T02:30:36.520Z,13.40
2022-09-09T02:33:25.050Z,13.50
2022-09-09T02:36:17.150Z,13.30
2022-09-09T02:39:07.750Z,13.50
2022-09-09T02:41:56.717Z,13.90
2022-09-09T02:44:51.542Z,11.60
2022-09-09T02:47:41.533Z,13.30
2022-09-09T02:50:35.395Z,13.30
2022-09-09T02:53:30.991Z,13.30
2022-09-09T02:56:19.418Z,13.40
2022-09-09T02:59:08.981Z,13.50
2022-09-09T03:01:57.903Z,13.50
2022-09-09T03:04:46.031Z,13.50
2022-09-09T03:07:35.126Z,13.50
2022-09-09T03:10:24.514Z,13.50
2022-09-09T03:13:12.232Z,13.40
2022-09-09T03:16:01.098Z,13.50
2022-09-09T03:18:53.093Z,13.90
2022-09-09T03:21:41.946Z,13.60
2022-09-09T03:24:30.095Z,13.60
2022-09-09T03:27:20.891Z,13.70
2022-09-09T03:30:09.428Z,13.40
2022-09-09T03:32:58.035Z,13.50
2022-09-09T03:35:51.912Z,13.50
2022-09-09T03:38:41.996Z,13.70
2022-09-09T03:41:29.921Z,13.70
2022-09-09T03:44:19.612Z,13.60
2022-09-09T03:47:08.095Z,13.40
2022-09-09T03:49:56.391Z,13.90
2022-09-09T03:52:44.071Z,12.70
2022-09-09T03:55:42.992Z,12.80
2022-09-09T03:58:30.653Z,13.50
2022-09-09T04:01:30.338Z,13.50
2022-09-09T04:04:18.242Z,13.50
2022-09-09T04:07:13.120Z,13.60
2022-09-09T04:10:02.102Z,13.50
2022-09-09T04:12:50.516Z,13.50
2022-09-09T04:15:38.240Z,13.50
2022-09-09T04:18:29.434Z,13.40
2022-09-09T04:21:17.214Z,13.40
2022-09-09T04:24:05.150Z,14.90
2022-09-09T04:26:56.184Z,13.30
2022-09-09T04:29:44.125Z,13.30
2022-09-09T04:32:32.251Z,13.00
2022-09-09T04:35:21.565Z,13.40
2022-09-09T04:38:10.609Z,13.70
2022-09-09T04:40:58.301Z,13.40
2022-09-09T04:43:46.461Z,13.50
2022-09-09T04:46:36.754Z,13.40
2022-09-09T04:49:25.678Z,11.60
2022-09-09T04:52:14.367Z,13.60
2022-09-09T04:55:01.847Z,13.50
2022-09-09T04:57:49.924Z,13.90
2022-09-09T05:00:38.404Z,14.60
2022-09-09T05:03:28.618Z,13.50
2022-09-09T05:06:17.946Z,13.40
2022-09-09T05:09:09.364Z,13.40
2022-09-09T05:11:57.401Z,13.40
2022-09-09T05:14:51.988Z,13.40
2022-09-09T05:17:39.733Z,13.40
2022-09-09T05:20:27.615Z,13.40
2022-09-09T05:23:16.004Z,13.40
2022-09-09T05:26:07.716Z,12.80
2022-09-09T05:28:56.326Z,13.90
2022-09-09T05:31:44.279Z,13.50
2022-09-09T05:34:36.024Z,13.50
2022-09-09T05:37:24.766Z,13.60
2022-09-09T05:40:13.654Z,13.60
2022-09-09T05:43:05.702Z,13.70
2022-09-09T05:46:02.366Z,13.70
2022-09-09T05:48:52.946Z,13.80
2022-09-09T05:51:43.938Z,14.00
2022-09-09T05:54:34.068Z,13.90
2022-09-09T05:57:26.534Z,14.30
2022-09-09T06:00:17.421Z,14.00
2022-09-09T06:03:07.932Z,14.10
2022-09-09T06:05:59.830Z,14.10
2022-09-09T06:08:51.477Z,15.00
2022-09-09T06:11:40.455Z,13.00
2022-09-09T06:14:30.323Z,14.20
2022-09-09T06:17:22.900Z,14.40
2022-09-09T06:20:15.392Z,14.10
2022-09-09T06:23:22.403Z,13.10
2022-09-09T06:26:12.892Z,14.00
2022-09-09T06:29:06.297Z,14.10
2022-09-09T06:31:59.604Z,14.10
2022-09-09T06:34:50.556Z,14.20
2022-09-09T06:37:49.998Z,13.30
2022-09-09T06:40:41.972Z,13.60
2022-09-09T06:43:34.392Z,14.30
2022-09-09T06:46:30.626Z,14.30
2022-09-09T06:49:34.859Z,14.50
2022-09-09T06:52:30.491Z,13.60
2022-09-09T06:55:27.503Z,13.90
2022-09-09T06:58:19.614Z,14.80
2022-09-09T07:01:23.311Z,15.00
2022-09-09T07:04:12.279Z,14.30
2022-09-09T07:07:02.470Z,14.90
2022-09-09T07:09:53.300Z,14.30
2022-09-09T07:12:43.233Z,14.70
2022-09-09T07:15:33.991Z,13.90
2022-09-09T07:18:27.156Z,14.50
2022-09-09T07:21:16.155Z,14.70
2022-09-09T07:24:10.241Z,14.60
2022-09-09T07:27:08.027Z,14.60
2022-09-09T07:29:58.871Z,14.80
2022-09-09T07:32:46.650Z,14.70
2022-09-09T07:35:36.125Z,14.80
2022-09-09T07:38:30.139Z,14.80
2022-09-09T07:41:22.263Z,14.80
2022-09-09T07:44:15.612Z,14.70
2022-09-09T07:47:08.170Z,14.80
2022-09-09T07:50:00.426Z,16.00
2022-09-09T07:52:52.865Z,14.70
2022-09-09T07:55:42.450Z,14.80
2022-09-09T07:58:35.169Z,14.80
2022-09-09T08:01:30.242Z,15.10
2022-09-09T08:04:19.585Z,15.00
2022-09-09T08:07:09.422Z,15.30
2022-09-09T08:10:05.808Z,15.00
2022-09-09T08:13:16.808Z,16.60
2022-09-09T08:16:18.159Z,15.10
2022-09-09T08:19:11.182Z,15.60
2022-09-09T08:22:00.565Z,15.80
2022-09-09T08:24:51.853Z,15.80
2022-09-09T08:27:40.465Z,15.90
2022-09-09T08:30:28.927Z,16.00
2022-09-09T08:33:17.573Z,15.20
2022-09-09T08:36:10.176Z,16.10
2022-09-09T08:38:59.011Z,16.30
2022-09-09T08:42:06.488Z,16.40
2022-09-09T08:45:04.834Z,16.50
2022-09-09T08:47:57.006Z,16.60
2022-09-09T08:50:47.937Z,16.50
2022-09-09T08:53:45.094Z,16.40
2022-09-09T08:56:34.981Z,16.20
2022-09-09T08:59:24.552Z,16.30
2022-09-09T09:02:17.383Z,16.30
2022-09-09T09:05:18.151Z,16.10
2022-09-09T09:08:10.914Z,16.00
2022-09-09T09:11:02.853Z,16.00
2022-09-09T09:13:59.677Z,15.90
2022-09-09T09:16:53.734Z,15.80
2022-09-09T09:19:48.456Z,15.80
2022-09-09T09:22:43.931Z,15.70
2022-09-09T09:25:37.532Z,15.70
2022-09-09T09:28:31.627Z,15.80
2022-09-09T09:31:28.462Z,15.80
2022-09-09T09:34:20.556Z,15.80
2022-09-09T09:37:21.615Z,15.70
2022-09-09T09:40:13.626Z,15.70
2022-09-09T09:43:02.638Z,15.80
2022-09-09T09:46:17.726Z,15.70
2022-09-09T09:49:12.905Z,15.70
2022-09-09T09:52:05.315Z,15.70
2022-09-09T09:54:53.825Z,14.90
2022-09-09T09:57:42.334Z,15.30
2022-09-09T10:00:37.408Z,15.80
2022-09-09T10:03:41.267Z,15.80
2022-09-09T10:06:34.330Z,15.70
2022-09-09T10:09:24.947Z,15.80
2022-09-09T10:12:22.455Z,15.90
2022-09-09T10:15:19.435Z,16.00
2022-09-09T10:18:16.845Z,17.20
2022-09-09T10:21:13.989Z,16.10
2022-09-09T10:24:12.094Z,15.90
2022-09-09T10:27:02.887Z,16.80
2022-09-09T10:30:03.494Z,15.70
2022-09-09T10:33:02.672Z,16.70
2022-09-09T10:36:01.303Z,15.90
2022-09-09T10:39:00.339Z,15.90
2022-09-09T10:41:54.234Z,16.40
2022-09-09T10:45:00.682Z,15.90
2022-09-09T10:48:08.470Z,17.40
2022-09-09T10:51:03.423Z,15.90
2022-09-09T10:53:58.361Z,15.90
2022-09-09T10:56:56.161Z,15.90
2022-09-09T10:59:45.770Z,15.80
2022-09-09T11:02:35.486Z,15.70
2022-09-09T11:05:30.472Z,15.70
2022-09-09T11:08:20.515Z,15.80
2022-09-09T11:11:14.387Z,16.00
2022-09-09T11:14:06.488Z,16.10
2022-09-09T11:16:56.447Z,16.20
2022-09-09T11:19:51.096Z,16.30
2022-09-09T11:22:42.014Z,16.50
2022-09-09T11:25:34.737Z,16.60
2022-09-09T11:28:40.128Z,16.70
2022-09-09T11:31:38.767Z,16.80
2022-09-09T11:34:38.513Z,17.10
2022-09-09T11:37:50.764Z,17.30
2022-09-09T11:40:38.581Z,17.40
2022-09-09T11:43:28.231Z,17.60
2022-09-09T11:46:18.684Z,17.80
2022-09-09T11:49:09.098Z,17.80
2022-09-09T11:51:57.200Z,17.80
2022-09-09T11:54:48.930Z,17.70
2022-09-09T11:57:38.050Z,17.70
2022-09-09T12:00:35.393Z,17.90
2022-09-09T12:03:41.411Z,18.10
2022-09-09T12:06:33.211Z,18.10
2022-09-09T12:09:25.469Z,18.00
2022-09-09T12:12:34.459Z,18.10
2022-09-09T12:15:24.063Z,18.20
2022-09-09T12:18:17.297Z,18.50
2022-09-09T12:21:08.863Z,18.60
2022-09-09T12:24:00.462Z,18.50
2022-09-09T12:26:50.574Z,18.50
2022-09-09T12:29:43.837Z,18.30
2022-09-09T12:32:31.330Z,18.20
2022-09-09T12:35:23.092Z,18.20
2022-09-09T12:38:14.538Z,18.30
2022-09-09T12:41:03.796Z,18.50
2022-09-09T12:43:52.301Z,18.60
2022-09-09T12:46:41.863Z,18.50
2022-09-09T12:49:35.594Z,18.60
2022-09-09T12:52:26.247Z,18.60
2022-09-09T12:55:18.919Z,18.60
2022-09-09T12:58:08.859Z,18.70
2022-09-09T13:00:57.709Z,18.60
2022-09-09T13:03:48.484Z,18.60
2022-09-09T13:06:36.911Z,18.60
2022-09-09T13:09:24.740Z,18.80
2022-09-09T13:12:15.560Z,19.00
2022-09-09T13:15:08.299Z,19.20
2022-09-09T13:17:57.539Z,19.40
2022-09-09T13:20:48.900Z,19.40
2022-09-09T13:23:37.997Z,19.40
2022-09-09T13:26:26.780Z,19.40
2022-09-09T13:29:20.071Z,19.70
2022-09-09T13:32:15.224Z,19.50
2022-09-09T13:35:03.937Z,19.50
2022-09-09T13:37:53.259Z,19.60
2022-09-09T13:40:40.983Z,19.60
2022-09-09T13:43:31.889Z,19.60
2022-09-09T13:46:31.225Z,19.60
2022-09-09T13:49:24.186Z,19.80
2022-09-09T13:52:12.987Z,19.80
2022-09-09T13:55:01.434Z,19.90
2022-09-09T13:57:52.833Z,19.90
2022-09-09T14:00:41.008Z,19.90
2022-09-09T14:03:29.109Z,19.80
2022-09-09T14:06:19.918Z,19.70
2022-09-09T14:09:08.449Z,19.70
2022-09-09T14:11:57.446Z,19.70
2022-09-09T14:14:44.971Z,19.80
2022-09-09T14:17:35.199Z,19.80
2022-09-09T14:20:24.539Z,19.90
2022-09-09T14:23:14.426Z,18.80
2022-09-09T14:26:02.270Z,20.30
2022-09-09T14:28:55.446Z,20.20
2022-09-09T14:31:43.663Z,20.00
2022-09-09T14:34:33.455Z,19.90
2022-09-09T14:37:21.646Z,19.70
2022-09-09T14:40:12.699Z,19.70
2022-09-09T14:43:00.562Z,19.80
2022-09-09T14:45:49.573Z,19.90
2022-09-09T14:48:37.922Z,19.80
2022-09-09T14:51:28.279Z,19.80
2022-09-09T14:54:16.495Z,19.70
2022-09-09T14:57:05.452Z,19.70
2022-09-09T14:59:52.679Z,19.70
2022-09-09T15:02:41.364Z,19.80
2022-09-09T15:05:29.226Z,19.90
2022-09-09T15:08:18.339Z,20.00
2022-09-09T15:11:12.470Z,20.20
2022-09-09T15:14:04.881Z,20.20
2022-09-09T15:16:55.471Z,20.10
2022-09-09T15:19:46.212Z,20.40
2022-09-09T15:22:35.109Z,20.60
2022-09-09T15:25:23.094Z,20.70
2022-09-09T15:28:13.674Z,20.70
2022-09-09T15:31:07.330Z,20.50
2022-09-09T15:34:03.216Z,20.40
2022-09-09T15:36:51.530Z,20.30
2022-09-09T15:39:39.341Z,20.00
2022-09-09T15:42:27.599Z,19.90
2022-09-09T15:45:16.351Z,19.80
2022-09-09T15:48:06.435Z,20.00
2022-09-09T15:51:10.987Z,20.30
2022-09-09T15:54:13.420Z,19.50
2022-09-09T15:57:03.143Z,20.40
2022-09-09T15:59:51.215Z,20.20
2022-09-09T16:02:39.165Z,20.00
2022-09-09T16:05:28.812Z,19.90
2022-09-09T16:08:18.889Z,20.00
2022-09-09T16:11:12.251Z,20.10
2022-09-09T16:14:00.845Z,20.10
2022-09-09T16:16:51.404Z,20.10
2022-09-09T16:19:39.152Z,20.00
2022-09-09T16:22:28.008Z,20.00
2022-09-09T16:25:19.780Z,19.90
2022-09-09T16:28:07.783Z,19.80
2022-09-09T16:30:56.614Z,19.60
2022-09-09T16:33:45.788Z,19.50
2022-09-09T16:36:35.288Z,19.30
2022-09-09T16:39:25.021Z,19.30
2022-09-09T16:42:12.897Z,19.00
2022-09-09T16:45:00.349Z,18.90
2022-09-09T16:47:49.180Z,18.90
2022-09-09T16:50:36.802Z,18.70
2022-09-09T16:53:25.351Z,18.70
2022-09-09T16:56:15.267Z,18.60
2022-09-09T16:59:07.830Z,20.10
2022-09-09T17:01:56.944Z,18.30
2022-09-09T17:04:45.327Z,18.10
2022-09-09T17:07:35.992Z,17.70
2022-09-09T17:10:24.705Z,17.40
2022-09-09T17:13:14.394Z,17.20
2022-09-09T17:16:06.059Z,17.00
2022-09-09T17:18:54.851Z,17.00
2022-09-09T17:22:05.996Z,16.90
2022-09-09T17:24:51.779Z,16.80
2022-09-09T17:27:39.757Z,16.80
2022-09-09T17:30:30.665Z,16.70
2022-09-09T17:33:19.294Z,16.20
2022-09-09T17:36:11.098Z,16.50
2022-09-09T17:39:01.330Z,16.40
2022-09-09T17:41:49.920Z,16.40
2022-09-09T17:44:38.464Z,16.30
2022-09-09T17:47:31.494Z,16.30
2022-09-09T17:50:19.540Z,16.20
2022-09-09T17:53:07.186Z,16.20
2022-09-09T17:55:54.920Z,16.10
2022-09-09T17:58:43.771Z,16.00
2022-09-09T18:01:32.805Z,15.70
2022-09-09T18:04:22.880Z,15.80
2022-09-09T18:07:11.247Z,15.70
2022-09-09T18:09:59.057Z,15.60
2022-09-09T18:12:48.158Z,15.50
2022-09-09T18:15:49.388Z,15.50
2022-09-09T18:18:38.259Z,15.40
2022-09-09T18:21:27.983Z,15.40
2022-09-09T18:24:18.031Z,15.30
2022-09-09T18:27:07.105Z,15.30
2022-09-09T18:29:55.118Z,15.60
2022-09-09T18:32:43.120Z,15.20
2022-09-09T18:35:31.407Z,15.20
2022-09-09T18:38:21.488Z,15.20
2022-09-09T18:41:22.620Z,15.20
2022-09-09T18:44:13.942Z,15.30
2022-09-09T18:47:03.086Z,15.20
2022-09-09T18:49:52.386Z,15.20
2022-09-09T18:52:40.629Z,15.10
2022-09-09T18:55:30.947Z,15.10
2022-09-09T18:58:19.340Z,15.10
2022-09-09T19:01:10.142Z,15.10
2022-09-09T19:03:58.228Z,15.00
2022-09-09T19:06:49.421Z,14.90
2022-09-09T19:09:37.438Z,15.50
2022-09-09T19:12:27.921Z,14.80
2022-09-09T19:15:16.879Z,14.90
2022-09-09T19:18:06.068Z,13.30
2022-09-09T19:20:54.798Z,14.80
2022-09-09T19:23:43.486Z,14.80
2022-09-09T19:26:33.489Z,14.80
2022-09-09T19:29:23.942Z,14.80
2022-09-09T19:35:20.933Z,14.80
2022-09-09T19:38:09.172Z,14.80
2022-09-09T19:40:57.094Z,14.90
2022-09-09T19:43:46.160Z,14.90
2022-09-09T19:46:37.228Z,15.00
2022-09-09T19:49:26.161Z,15.00
2022-09-09T19:52:13.601Z,15.10
2022-09-09T19:55:01.989Z,15.10
2022-09-09T19:57:51.618Z,15.10
2022-09-09T20:00:41.505Z,15.10
2022-09-09T20:03:31.163Z,15.20
2022-09-09T20:06:20.215Z,15.20
2022-09-09T20:09:10.600Z,15.30
2022-09-09T20:11:59.600Z,15.30
2022-09-09T20:14:47.304Z,15.30
2022-09-09T20:17:35.808Z,15.30
2022-09-09T20:20:25.294Z,15.30
2022-09-09T20:23:14.524Z,15.20
2022-09-09T20:26:03.195Z,15.30
2022-09-09T20:28:52.412Z,15.30
2022-09-09T20:31:41.375Z,15.30
2022-09-09T20:34:30.273Z,15.20
2022-09-09T20:37:21.073Z,15.10
2022-09-09T20:40:09.604Z,15.10
2022-09-09T20:42:57.531Z,15.20
2022-09-09T20:45:45.880Z,15.00
2022-09-09T20:48:34.741Z,14.90
2022-09-09T20:51:23.851Z,14.90
2022-09-09T20:54:14.599Z,14.90
2022-09-09T20:57:02.369Z,15.10
2022-09-09T20:59:51.381Z,14.80
2022-09-09T21:02:39.276Z,15.00
2022-09-09T21:05:28.031Z,14.90
2022-09-09T21:08:17.079Z,14.90
2022-09-09T21:11:07.043Z,14.90
2022-09-09T21:13:54.623Z,14.90
2022-09-09T21:16:42.374Z,14.90
2022-09-09T21:19:31.212Z,14.90
2022-09-09T21:22:19.429Z,15.00
2022-09-09T21:25:07.643Z,14.10
2022-09-09T21:27:56.790Z,14.90
2022-09-09T21:30:48.313Z,15.00
2022-09-09T21:33:36.384Z,15.00
2022-09-09T21:36:25.566Z,14.90
2022-09-09T21:39:13.976Z,14.90
2022-09-09T21:42:01.929Z,15.00
2022-09-09T21:44:52.063Z,14.90
2022-09-09T21:47:42.290Z,15.30
2022-09-09T21:50:30.546Z,14.90
2022-09-09T21:53:20.586Z,14.90
2022-09-09T21:56:09.751Z,14.80
2022-09-09T21:58:58.451Z,14.80
2022-09-09T22:01:48.599Z,14.80
2022-09-09T22:04:37.996Z,14.80
2022-09-09T22:07:26.297Z,14.80
2022-09-09T22:10:14.757Z,14.80
2022-09-09T22:13:01.978Z,14.70
2022-09-09T22:15:51.093Z,14.60
2022-09-09T22:18:41.362Z,14.60
2022-09-09T22:21:29.479Z,14.60
2022-09-09T22:24:17.109Z,14.50
2022-09-09T22:27:06.311Z,14.60
2022-09-09T22:29:55.039Z,14.50
2022-09-09T22:32:50.274Z,14.50
2022-09-09T22:35:51.180Z,14.50
2022-09-09T22:38:40.091Z,14.50
2022-09-09T22:41:32.500Z,14.90
2022-09-09T22:44:20.552Z,14.70
2022-09-09T22:47:08.022Z,14.60
2022-09-09T22:49:57.265Z,14.60
2022-09-09T22:52:46.309Z,14.70
2022-09-09T22:55:34.994Z,14.70
2022-09-09T22:58:22.957Z,14.70
2022-09-09T23:01:14.081Z,14.60
2022-09-09T23:04:02.998Z,14.70
2022-09-09T23:06:51.142Z,14.70
2022-09-09T23:09:40.568Z,14.80
2022-09-09T23:12:27.827Z,14.80
2022-09-09T23:15:15.764Z,14.80
2022-09-09T23:18:04.325Z,14.80
2022-09-09T23:21:00.992Z,14.90
2022-09-09T23:23:53.523Z,14.80
2022-09-09T23:26:47.468Z,14.90
2022-09-09T23:29:36.215Z,14.90
2022-09-09T23:32:24.279Z,15.00
2022-09-09T23:35:12.135Z,14.90
2022-09-09T23:38:02.610Z,15.00
2022-09-09T23:40:50.781Z,14.90
2022-09-09T23:43:40.806Z,15.00
2022-09-09T23:46:29.359Z,15.10
2022-09-09T23:49:17.591Z,14.90
2022-09-09T23:52:06.590Z,14.90
2022-09-09T23:54:55.742Z,14.90
2022-09-09T23:57:43.051Z,14.90
